Time;durP1;ratioP1;P1;durP2;ratioP2;P2;SDS_P1;SDS_P2;PMS_P1;PMS_P2;Temp;Humidity;BMP_temperature;BMP_pressure;BME280_temperature;BME280_humidity;BME280_pressure;Samples;Min_cycle;Max_cycle;Signal;HPM_P1;HPM_P2
2021/10/11 00:01:58;;;;;;;11.20;6.57;;;14.80;83.70;;;;;;5059595;28;20035;-87
2021/10/11 00:04:24;;;;;;;11.27;6.88;;;14.80;83.80;;;;;;5071174;28;20095;-76
2021/10/11 00:06:50;;;;;;;10.30;6.25;;;14.80;83.90;;;;;;5074294;28;20036;-76
2021/10/11 00:09:15;;;;;;;10.50;5.18;;;14.80;83.90;;;;;;5080671;28;20040;-77
2021/10/11 00:11:41;;;;;;;10.65;5.80;;;14.80;84.10;;;;;;5061093;28;20048;-76
2021/10/11 00:14:07;;;;;;;7.55;5.25;;;14.80;84.10;;;;;;5074487;28;20097;-86
2021/10/11 00:16:34;;;;;;;8.05;4.55;;;14.70;84.00;;;;;;5077990;28;20077;-87
2021/10/11 00:19:01;;;;;;;11.05;4.57;;;14.80;84.00;;;;;;5076521;28;20043;-88
2021/10/11 00:21:27;;;;;;;9.52;4.38;;;14.80;84.00;;;;;;5056304;28;20059;-88
2021/10/11 00:23:52;;;;;;;10.20;4.68;;;14.80;84.00;;;;;;5041252;28;20032;-88
2021/10/11 00:26:18;;;;;;;11.93;3.90;;;14.80;83.90;;;;;;5082715;28;20032;-87
2021/10/11 00:28:44;;;;;;;9.05;3.38;;;14.80;83.90;;;;;;5075000;28;20070;-87
2021/10/11 00:31:10;;;;;;;8.00;3.80;;;14.80;83.80;;;;;;5075287;28;20118;-88
2021/10/11 00:33:36;;;;;;;9.65;3.10;;;14.80;83.80;;;;;;5076499;28;20119;-77
2021/10/11 00:36:03;;;;;;;8.82;3.10;;;14.80;83.70;;;;;;5072773;28;20074;-77
2021/10/11 00:38:28;;;;;;;5.55;2.78;;;14.80;83.60;;;;;;5073990;28;20521;-86
2021/10/11 00:40:54;;;;;;;8.15;2.45;;;14.70;83.60;;;;;;5074994;28;20037;-86
2021/10/11 00:43:20;;;;;;;9.23;2.80;;;14.70;83.40;;;;;;5077112;28;20035;-88
2021/10/11 00:45:46;;;;;;;9.48;2.90;;;14.70;83.60;;;;;;5072256;28;20376;-88
2021/10/11 00:48:11;;;;;;;6.07;2.83;;;14.60;83.50;;;;;;5078831;28;20394;-88
2021/10/11 00:50:37;;;;;;;8.90;2.78;;;14.60;83.50;;;;;;5061020;28;20428;-77
2021/10/11 00:53:03;;;;;;;8.40;2.70;;;14.60;83.60;;;;;;5072662;28;20372;-77
2021/10/11 00:55:29;;;;;;;7.30;2.42;;;14.60;83.50;;;;;;5073963;28;20016;-86
2021/10/11 00:57:54;;;;;;;7.25;2.25;;;14.60;83.50;;;;;;5072618;28;20093;-77
2021/10/11 01:00:20;;;;;;;7.55;2.53;;;14.50;83.20;;;;;;5079311;28;20587;-86
2021/10/11 01:02:46;;;;;;;9.20;2.30;;;14.50;82.90;;;;;;5074817;28;20032;-77
2021/10/11 01:05:12;;;;;;;7.32;2.33;;;14.50;82.80;;;;;;5074039;28;20109;-77
2021/10/11 01:07:37;;;;;;;6.63;2.58;;;14.50;82.60;;;;;;5075758;28;20115;-77
2021/10/11 01:10:04;;;;;;;12.05;2.80;;;14.50;82.60;;;;;;5078286;28;20028;-89
2021/10/11 01:12:30;;;;;;;9.73;3.38;;;14.50;82.80;;;;;;5083325;28;20025;-87
2021/10/11 01:14:56;;;;;;;7.60;2.60;;;14.40;82.80;;;;;;5078934;28;20048;-77
2021/10/11 01:17:21;;;;;;;9.75;2.33;;;14.40;82.80;;;;;;5053406;28;20526;-86
2021/10/11 01:19:49;;;;;;;8.77;2.85;;;14.40;82.70;;;;;;5061650;28;20048;-85
2021/10/11 01:22:17;;;;;;;10.13;3.40;;;14.40;82.60;;;;;;5077992;28;20028;-77
2021/10/11 01:24:43;;;;;;;8.55;3.10;;;14.40;82.70;;;;;;5072643;28;20025;-85
2021/10/11 01:27:09;;;;;;;7.90;2.83;;;14.40;82.50;;;;;;5081039;28;20444;-76
2021/10/11 01:29:34;;;;;;;5.25;2.97;;;14.40;82.60;;;;;;5056839;28;20032;-76
2021/10/11 01:32:00;;;;;;;12.88;3.15;;;14.40;82.70;;;;;;5061465;28;20062;-76
2021/10/11 01:34:26;;;;;;;13.63;3.30;;;14.40;82.90;;;;;;5076948;28;20475;-76
2021/10/11 01:36:52;;;;;;;8.90;3.22;;;14.30;82.80;;;;;;5076096;28;20056;-86
2021/10/11 01:39:17;;;;;;;11.15;3.10;;;14.30;83.00;;;;;;5078250;28;20506;-76
2021/10/11 01:41:43;;;;;;;9.93;3.50;;;14.30;83.20;;;;;;5079764;28;20078;-76
2021/10/11 01:44:09;;;;;;;9.50;3.47;;;14.30;83.30;;;;;;5057607;28;20470;-85
2021/10/11 01:46:36;;;;;;;10.90;3.60;;;14.40;83.40;;;;;;5082632;28;20658;-76
2021/10/11 01:49:02;;;;;;;9.18;4.28;;;14.40;83.50;;;;;;5077613;28;20059;-76
2021/10/11 01:51:28;;;;;;;9.63;3.45;;;14.30;83.50;;;;;;5058250;28;20090;-85
2021/10/11 01:53:54;;;;;;;9.32;3.40;;;14.30;83.50;;;;;;5077313;28;20032;-76
2021/10/11 01:56:20;;;;;;;6.57;3.22;;;14.40;83.60;;;;;;5060176;28;20073;-76
2021/10/11 01:58:45;;;;;;;11.23;3.80;;;14.30;83.60;;;;;;5056313;28;20609;-85
2021/10/11 02:01:11;;;;;;;11.30;3.50;;;14.30;83.80;;;;;;5085571;28;20031;-86
2021/10/11 02:03:37;;;;;;;11.63;3.63;;;14.30;83.80;;;;;;5077148;28;20058;-85
2021/10/11 02:06:03;;;;;;;10.65;3.50;;;14.20;83.70;;;;;;5072836;28;20490;-86
2021/10/11 02:08:28;;;;;;;8.38;3.25;;;14.20;83.70;;;;;;5070076;28;20028;-86
2021/10/11 02:10:54;;;;;;;8.75;3.45;;;14.20;83.60;;;;;;5057756;28;20542;-85
2021/10/11 02:13:20;;;;;;;11.73;3.38;;;14.20;83.60;;;;;;5054086;28;20136;-76
2021/10/11 02:15:46;;;;;;;9.43;3.22;;;14.10;83.50;;;;;;5068661;28;20056;-85
2021/10/11 02:18:11;;;;;;;5.50;2.65;;;14.10;83.40;;;;;;5073261;28;20411;-76
2021/10/11 02:20:37;;;;;;;17.50;3.85;;;14.10;83.30;;;;;;5083316;28;20051;-86
2021/10/11 02:23:04;;;;;;;8.18;3.42;;;14.10;83.30;;;;;;5070866;28;20066;-85
2021/10/11 02:25:30;;;;;;;7.85;3.20;;;14.00;83.10;;;;;;5078307;28;20024;-85
2021/10/11 02:27:56;;;;;;;6.90;3.05;;;14.00;83.00;;;;;;5075511;28;20067;-86
2021/10/11 02:30:22;;;;;;;11.85;3.50;;;14.00;82.70;;;;;;5078393;28;20039;-85
2021/10/11 02:32:48;;;;;;;7.13;2.70;;;14.00;82.80;;;;;;5075466;28;20079;-85
2021/10/11 02:35:16;;;;;;;6.30;2.80;;;13.90;82.60;;;;;;5081312;28;20037;-85
2021/10/11 02:37:43;;;;;;;8.90;2.92;;;13.90;82.50;;;;;;5075856;28;20028;-77
2021/10/11 02:40:09;;;;;;;9.85;3.08;;;13.90;82.30;;;;;;5070022;28;20435;-83
2021/10/11 02:42:35;;;;;;;8.35;2.97;;;13.80;82.20;;;;;;5070498;28;20086;-76
2021/10/11 02:45:02;;;;;;;8.68;3.00;;;13.80;82.00;;;;;;5071262;28;20036;-76
2021/10/11 02:47:27;;;;;;;9.60;3.38;;;13.80;82.10;;;;;;5081885;28;20397;-76
2021/10/11 02:49:53;;;;;;;10.20;3.30;;;13.80;82.10;;;;;;5074378;28;20386;-76
2021/10/11 02:52:19;;;;;;;7.60;3.25;;;13.70;81.90;;;;;;5070544;28;20389;-76
2021/10/11 02:54:44;;;;;;;7.10;2.78;;;13.70;82.00;;;;;;5073898;28;20047;-76
2021/10/11 02:57:10;;;;;;;7.35;2.80;;;13.70;82.00;;;;;;5058358;28;20060;-85
2021/10/11 02:59:36;;;;;;;8.55;3.20;;;13.70;82.00;;;;;;5074778;28;20033;-85
2021/10/11 03:02:01;;;;;;;9.32;3.13;;;13.60;81.70;;;;;;5056266;28;20035;-76
2021/10/11 03:04:27;;;;;;;8.35;2.90;;;13.60;81.70;;;;;;5059127;28;20206;-76
2021/10/11 03:06:53;;;;;;;6.43;2.88;;;13.60;81.40;;;;;;5075808;28;20473;-76
2021/10/11 03:09:18;;;;;;;6.75;3.25;;;13.60;81.20;;;;;;5078330;28;20028;-76
2021/10/11 03:11:44;;;;;;;4.90;2.53;;;13.50;81.10;;;;;;5065225;28;20494;-85
2021/10/11 03:14:10;;;;;;;7.13;2.72;;;13.50;80.90;;;;;;5079735;28;20045;-85
2021/10/11 03:16:35;;;;;;;6.03;2.83;;;13.40;80.70;;;;;;5076137;28;20032;-85
2021/10/11 03:19:01;;;;;;;8.60;3.20;;;13.40;80.50;;;;;;5073186;28;20037;-85
2021/10/11 03:21:27;;;;;;;8.55;2.80;;;13.40;80.30;;;;;;5078834;28;20082;-85
2021/10/11 03:23:53;;;;;;;4.22;2.78;;;13.40;80.20;;;;;;5060276;28;20028;-85
2021/10/11 03:26:20;;;;;;;7.72;2.58;;;13.40;79.90;;;;;;5081400;28;20363;-84
2021/10/11 03:28:46;;;;;;;6.82;2.72;;;13.30;79.60;;;;;;5077938;28;20033;-84
2021/10/11 03:31:12;;;;;;;5.60;2.63;;;13.30;79.40;;;;;;5079476;28;20036;-76
2021/10/11 03:33:39;;;;;;;6.10;2.80;;;13.20;79.40;;;;;;5070398;28;20394;-76
2021/10/11 03:36:05;;;;;;;7.70;2.70;;;13.20;79.20;;;;;;5070680;28;20036;-76
2021/10/11 03:38:31;;;;;;;4.63;2.65;;;13.20;78.90;;;;;;5077058;28;20092;-84
2021/10/11 03:40:57;;;;;;;8.38;3.00;;;13.10;78.90;;;;;;5074520;28;20047;-84
2021/10/11 03:43:23;;;;;;;5.63;2.45;;;13.10;79.00;;;;;;5075126;28;20037;-85
2021/10/11 03:45:49;;;;;;;6.05;2.65;;;13.10;78.90;;;;;;5073336;28;20052;-85
2021/10/11 03:48:15;;;;;;;5.85;2.40;;;13.00;78.90;;;;;;5053859;28;20032;-76
2021/10/11 03:50:41;;;;;;;7.75;2.85;;;13.00;78.90;;;;;;5075654;28;20034;-76
2021/10/11 03:53:07;;;;;;;5.55;2.50;;;12.90;78.90;;;;;;5070388;28;20494;-76
2021/10/11 03:55:32;;;;;;;7.55;2.70;;;12.90;79.10;;;;;;5053131;28;20114;-84
2021/10/11 03:57:58;;;;;;;9.25;2.72;;;12.90;79.30;;;;;;5079819;28;20032;-85
2021/10/11 04:00:24;;;;;;;7.70;2.70;;;12.80;79.40;;;;;;5071998;28;20538;-76
2021/10/11 04:02:50;;;;;;;6.97;3.03;;;12.80;79.20;;;;;;5070737;28;20021;-76
2021/10/11 04:05:15;;;;;;;5.43;2.75;;;12.80;79.30;;;;;;5076974;28;20031;-76
2021/10/11 04:07:49;;;;;;;7.78;2.40;;;12.80;79.40;;;;;;5069763;28;20033;-76
2021/10/11 04:10:14;;;;;;;4.75;2.47;;;12.80;79.30;;;;;;5082262;28;20031;-84
2021/10/11 04:12:44;;;;;;;7.20;2.42;;;12.80;79.20;;;;;;5056078;28;20045;-84
2021/10/11 04:15:09;;;;;;;10.77;2.55;;;12.70;79.00;;;;;;5080152;28;20037;-85
2021/10/11 04:17:38;;;;;;;8.23;2.47;;;12.70;79.00;;;;;;5062061;28;20075;-84
2021/10/11 04:20:06;;;;;;;5.20;2.40;;;12.70;79.00;;;;;;5065667;28;20031;-84
2021/10/11 04:22:35;;;;;;;6.28;2.35;;;12.70;78.80;;;;;;5084072;28;20501;-84
2021/10/11 04:25:01;;;;;;;7.80;2.33;;;12.70;78.80;;;;;;5077215;28;20056;-85
2021/10/11 04:27:26;;;;;;;7.22;2.70;;;12.60;78.80;;;;;;5083799;28;20059;-85
2021/10/11 04:29:52;;;;;;;7.90;2.42;;;12.60;79.00;;;;;;5085992;28;20032;-85
2021/10/11 04:32:18;;;;;;;8.13;2.50;;;12.60;78.90;;;;;;5076294;28;20021;-85
2021/10/11 04:34:43;;;;;;;10.38;2.58;;;12.60;79.50;;;;;;5080977;28;20033;-85
2021/10/11 04:37:09;;;;;;;8.95;2.30;;;12.50;78.90;;;;;;5077064;28;20103;-85
2021/10/11 04:39:35;;;;;;;5.22;2.35;;;12.50;78.90;;;;;;5075847;28;20104;-76
2021/10/11 04:42:00;;;;;;;9.18;3.13;;;12.50;78.90;;;;;;5082462;28;20370;-85
2021/10/11 04:44:27;;;;;;;6.90;2.22;;;12.50;78.90;;;;;;5077040;28;20414;-85
2021/10/11 04:46:52;;;;;;;10.50;2.75;;;12.40;78.80;;;;;;5076940;28;20127;-76
2021/10/11 04:49:18;;;;;;;6.35;2.58;;;12.40;78.90;;;;;;5079349;28;20111;-85
2021/10/11 04:51:44;;;;;;;7.70;2.30;;;12.40;78.90;;;;;;5080243;28;20049;-76
2021/10/11 04:54:10;;;;;;;8.73;2.33;;;12.40;78.80;;;;;;5083818;28;20036;-85
2021/10/11 04:56:35;;;;;;;6.72;2.35;;;12.40;78.90;;;;;;5082856;28;20398;-85
2021/10/11 04:59:01;;;;;;;6.80;2.20;;;12.30;79.00;;;;;;5078507;28;20025;-85
2021/10/11 05:01:27;;;;;;;5.80;2.47;;;12.30;78.90;;;;;;5077207;28;20024;-85
2021/10/11 05:03:52;;;;;;;5.45;2.40;;;12.30;79.00;;;;;;5077067;28;20025;-85
2021/10/11 05:06:18;;;;;;;5.10;1.90;;;12.30;78.90;;;;;;5078124;28;20116;-85
2021/10/11 05:08:43;;;;;;;9.65;3.05;;;12.30;78.90;;;;;;5058323;28;20071;-76
2021/10/11 05:11:10;;;;;;;5.45;2.30;;;12.30;78.80;;;;;;5064667;28;20052;-76
2021/10/11 05:13:36;;;;;;;5.93;2.47;;;12.30;79.00;;;;;;5085203;28;20077;-76
2021/10/11 05:16:02;;;;;;;7.35;2.10;;;12.20;78.90;;;;;;5060199;28;20060;-76
2021/10/11 05:18:28;;;;;;;5.97;2.30;;;12.20;79.00;;;;;;5077920;28;20077;-85
2021/10/11 05:20:57;;;;;;;7.20;2.45;;;12.10;79.00;;;;;;5084417;28;20032;-85
2021/10/11 05:23:23;;;;;;;5.38;2.30;;;12.10;79.00;;;;;;5078568;28;20482;-85
2021/10/11 05:25:48;;;;;;;4.43;2.50;;;12.10;79.10;;;;;;5084738;28;20023;-76
2021/10/11 05:28:14;;;;;;;6.93;2.80;;;12.10;79.20;;;;;;5080909;28;20282;-76
2021/10/11 05:30:40;;;;;;;8.73;2.72;;;12.10;79.20;;;;;;5085828;28;20433;-85
2021/10/11 05:33:08;;;;;;;7.68;2.20;;;12.10;79.30;;;;;;5079180;28;20032;-84
2021/10/11 05:35:34;;;;;;;7.55;2.30;;;12.00;79.40;;;;;;5099591;28;20035;-85
2021/10/11 05:38:01;;;;;;;6.10;2.38;;;12.00;79.40;;;;;;5104342;28;20035;-85
2021/10/11 05:40:26;;;;;;;6.85;2.30;;;12.00;79.40;;;;;;5100094;28;20023;-85
2021/10/11 05:42:52;;;;;;;6.40;2.40;;;12.00;79.50;;;;;;5053292;28;20028;-76
2021/10/11 05:45:18;;;;;;;6.38;2.38;;;12.00;79.60;;;;;;5079435;28;20539;-85
2021/10/11 05:47:43;;;;;;;9.35;2.40;;;12.00;79.80;;;;;;5062280;28;20470;-85
2021/10/11 05:50:09;;;;;;;5.88;2.45;;;12.00;79.70;;;;;;5081669;28;20032;-77
2021/10/11 05:52:35;;;;;;;6.75;2.40;;;11.90;79.80;;;;;;5097433;28;20040;-76
2021/10/11 05:55:01;;;;;;;7.80;1.88;;;11.90;79.90;;;;;;5102915;28;20058;-76
2021/10/11 05:57:27;;;;;;;8.48;2.13;;;11.90;80.00;;;;;;5077636;28;20496;-85
2021/10/11 05:59:52;;;;;;;5.95;2.03;;;11.90;80.00;;;;;;5082908;28;20065;-76
2021/10/11 06:02:18;;;;;;;6.10;2.20;;;11.90;80.00;;;;;;5074974;28;20066;-76
2021/10/11 06:04:44;;;;;;;6.55;2.13;;;11.90;80.00;;;;;;5076681;28;20028;-76
2021/10/11 06:07:09;;;;;;;7.53;2.30;;;11.90;80.10;;;;;;5078485;28;20032;-85
2021/10/11 06:09:35;;;;;;;7.40;2.22;;;11.90;80.10;;;;;;5097509;28;20346;-85
2021/10/11 06:12:01;;;;;;;6.05;2.90;;;11.90;80.10;;;;;;5066079;28;20469;-85
2021/10/11 06:14:26;;;;;;;6.38;2.33;;;11.90;80.30;;;;;;5097811;28;20059;-85
2021/10/11 06:16:52;;;;;;;8.35;2.20;;;11.90;80.30;;;;;;5065963;28;20035;-85
2021/10/11 06:19:18;;;;;;;7.15;2.47;;;11.90;80.50;;;;;;5077555;28;20024;-85
2021/10/11 06:21:43;;;;;;;4.05;2.30;;;11.90;80.70;;;;;;5089295;28;20027;-76
2021/10/11 06:24:12;;;;;;;8.98;2.78;;;11.90;80.90;;;;;;5072821;28;20463;-76
2021/10/11 06:26:38;;;;;;;5.18;2.15;;;12.00;81.20;;;;;;5065191;28;20040;-76
2021/10/11 06:29:04;;;;;;;6.72;2.40;;;12.00;81.40;;;;;;5048102;28;20086;-76
2021/10/11 06:31:29;;;;;;;6.28;2.17;;;12.00;81.60;;;;;;5083254;28;20475;-76
2021/10/11 06:33:55;;;;;;;6.60;1.90;;;12.00;81.80;;;;;;5075979;28;20046;-77
2021/10/11 06:36:21;;;;;;;12.63;2.28;;;12.10;82.10;;;;;;5074204;28;20092;-77
2021/10/11 06:38:47;;;;;;;10.38;2.55;;;12.00;82.30;;;;;;5078249;28;20475;-77
2021/10/11 06:41:13;;;;;;;6.90;2.40;;;12.10;82.40;;;;;;5079813;28;20024;-77
2021/10/11 06:43:39;;;;;;;7.85;2.00;;;12.20;82.60;;;;;;5077081;28;20028;-85
2021/10/11 06:46:05;;;;;;;11.70;2.28;;;12.20;82.70;;;;;;5063967;28;20036;-84
2021/10/11 06:48:31;;;;;;;9.07;2.05;;;12.20;82.90;;;;;;5077720;28;20056;-77
2021/10/11 06:50:56;;;;;;;8.07;2.28;;;12.20;83.00;;;;;;5053897;28;20443;-77
2021/10/11 06:53:22;;;;;;;12.00;2.70;;;12.30;83.20;;;;;;5055445;28;20035;-77
2021/10/11 06:55:48;;;;;;;9.60;2.08;;;12.30;83.20;;;;;;5074348;28;20032;-84
2021/10/11 06:58:13;;;;;;;7.35;2.28;;;12.30;83.10;;;;;;5099260;28;20055;-77
2021/10/11 07:00:39;;;;;;;9.57;2.70;;;12.40;83.20;;;;;;5076234;28;20116;-76
2021/10/11 07:03:06;;;;;;;11.65;2.35;;;12.40;83.30;;;;;;5078957;28;20032;-77
2021/10/11 07:05:33;;;;;;;12.13;2.35;;;12.40;83.10;;;;;;5095875;28;20055;-84
2021/10/11 07:08:00;;;;;;;8.63;2.55;;;12.40;83.30;;;;;;5097075;28;20073;-84
2021/10/11 07:10:26;;;;;;;8.15;2.00;;;12.40;83.30;;;;;;5087199;28;20032;-84
2021/10/11 07:12:51;;;;;;;9.90;2.15;;;12.40;83.20;;;;;;5076386;28;20085;-76
2021/10/11 07:15:18;;;;;;;9.80;2.30;;;12.40;83.30;;;;;;5073167;28;20101;-77
2021/10/11 07:17:44;;;;;;;9.45;2.67;;;12.50;83.60;;;;;;5079102;28;20044;-77
2021/10/11 07:20:10;;;;;;;8.70;2.05;;;12.50;83.70;;;;;;5069201;28;20070;-76
2021/10/11 07:22:36;;;;;;;7.97;2.30;;;12.50;83.70;;;;;;5077444;28;20359;-84
2021/10/11 07:25:02;;;;;;;9.43;2.33;;;12.50;83.90;;;;;;5096381;28;20031;-77
2021/10/11 07:27:28;;;;;;;13.77;2.58;;;12.60;84.10;;;;;;5104076;28;20504;-84
2021/10/11 07:29:54;;;;;;;8.65;2.33;;;12.60;83.90;;;;;;5078801;28;20036;-77
2021/10/11 07:32:19;;;;;;;8.85;2.22;;;12.60;83.70;;;;;;5074208;28;20535;-85
2021/10/11 07:34:45;;;;;;;10.23;2.17;;;12.60;83.60;;;;;;5064101;28;20039;-76
2021/10/11 07:37:11;;;;;;;9.50;2.17;;;12.60;83.70;;;;;;5080168;28;20020;-77
2021/10/11 07:39:36;;;;;;;12.65;2.50;;;12.60;83.50;;;;;;5098054;28;20036;-84
2021/10/11 07:42:02;;;;;;;11.55;2.47;;;12.70;83.40;;;;;;5077576;28;20031;-84
2021/10/11 07:44:29;;;;;;;9.32;2.35;;;12.70;82.80;;;;;;5080424;28;20020;-84
2021/10/11 07:46:54;;;;;;;11.82;2.65;;;12.70;82.90;;;;;;5098512;28;20039;-84
2021/10/11 07:49:21;;;;;;;11.68;2.70;;;12.80;83.00;;;;;;5063803;28;20174;-83
2021/10/11 07:51:50;;;;;;;11.25;2.63;;;12.80;83.00;;;;;;5075538;28;20036;-77
2021/10/11 07:54:18;;;;;;;8.05;2.50;;;12.80;83.00;;;;;;5079711;28;20053;-77
2021/10/11 07:56:44;;;;;;;14.18;2.90;;;12.80;83.00;;;;;;5103429;28;20019;-77
2021/10/11 07:59:09;;;;;;;9.48;2.03;;;12.80;82.90;;;;;;5078082;28;20037;-77
2021/10/11 08:01:35;;;;;;;10.63;2.22;;;12.90;83.10;;;;;;5098031;28;20028;-84
2021/10/11 08:04:03;;;;;;;9.10;2.30;;;12.90;83.10;;;;;;5102886;28;20087;-83
2021/10/11 08:06:35;;;;;;;9.02;2.40;;;12.90;83.10;;;;;;5100739;28;20031;-83
2021/10/11 08:09:01;;;;;;;7.13;2.20;;;12.90;82.90;;;;;;5064231;28;20028;-77
2021/10/11 08:11:27;;;;;;;15.77;2.60;;;12.90;82.80;;;;;;5099377;28;20085;-77
2021/10/11 08:13:53;;;;;;;8.70;2.60;;;13.00;83.00;;;;;;5067519;28;20048;-77
2021/10/11 08:16:18;;;;;;;7.55;2.00;;;13.00;82.70;;;;;;5076704;28;20027;-76
2021/10/11 08:18:44;;;;;;;13.60;2.25;;;13.00;82.70;;;;;;5062590;28;20058;-77
2021/10/11 08:21:10;;;;;;;13.07;2.97;;;13.00;82.60;;;;;;5074441;28;20158;-77
2021/10/11 08:23:36;;;;;;;8.90;2.40;;;13.00;82.50;;;;;;5079593;28;20028;-77
2021/10/11 08:26:10;;;;;;;9.40;2.60;;;13.10;82.60;;;;;;5078491;28;20508;-77
2021/10/11 08:28:37;;;;;;;12.02;2.28;;;13.10;82.80;;;;;;5094276;28;20028;-83
2021/10/11 08:31:03;;;;;;;9.05;2.80;;;13.10;83.50;;;;;;5073621;28;20024;-83
2021/10/11 08:33:29;;;;;;;10.98;3.00;;;13.20;82.80;;;;;;5101485;28;20035;-83
2021/10/11 08:35:55;;;;;;;10.43;3.22;;;13.20;82.80;;;;;;5040678;28;20040;-83
2021/10/11 08:38:21;;;;;;;9.57;2.60;;;13.30;82.80;;;;;;5101457;28;20035;-77
2021/10/11 08:40:48;;;;;;;10.40;2.55;;;13.30;82.70;;;;;;5056277;28;20100;-83
2021/10/11 08:43:14;;;;;;;9.10;2.80;;;13.40;82.70;;;;;;5091316;28;20529;-83
2021/10/11 08:45:42;;;;;;;7.78;2.80;;;13.50;82.70;;;;;;5074276;28;20028;-83
2021/10/11 08:48:09;;;;;;;11.38;2.70;;;13.50;83.10;;;;;;5072495;28;20086;-74
2021/10/11 08:50:35;;;;;;;9.30;2.65;;;13.50;82.60;;;;;;5073377;28;20028;-76
2021/10/11 08:53:02;;;;;;;11.65;3.25;;;13.60;82.60;;;;;;5089944;28;20070;-76
2021/10/11 08:55:28;;;;;;;12.52;2.97;;;13.50;82.60;;;;;;5070328;28;20042;-76
2021/10/11 08:58:02;;;;;;;9.27;2.72;;;13.60;82.30;;;;;;5075576;28;20036;-75
2021/10/11 09:00:33;;;;;;;12.23;2.90;;;13.60;82.50;;;;;;5075499;28;20111;-76
2021/10/11 09:03:01;;;;;;;12.13;3.10;;;13.60;82.70;;;;;;5072555;28;20039;-75
2021/10/11 09:05:36;;;;;;;8.20;2.47;;;13.60;82.70;;;;;;5091845;28;20028;-76
2021/10/11 09:08:02;;;;;;;8.50;2.85;;;13.70;82.70;;;;;;5085368;28;20118;-76
2021/10/11 09:10:29;;;;;;;13.02;2.85;;;13.70;82.80;;;;;;5100158;28;20033;-76
2021/10/11 09:12:55;;;;;;;11.00;2.95;;;13.70;82.70;;;;;;5089753;28;20043;-76
2021/10/11 09:15:26;;;;;;;9.07;2.50;;;13.80;82.80;;;;;;5088510;28;20414;-75
2021/10/11 09:17:56;;;;;;;15.05;3.10;;;13.80;82.70;;;;;;5091629;28;20364;-76
2021/10/11 09:20:25;;;;;;;10.18;2.90;;;13.90;82.90;;;;;;5090397;28;20500;-76
2021/10/11 09:22:53;;;;;;;10.63;2.88;;;14.00;82.70;;;;;;5088328;28;20593;-76
2021/10/11 09:25:21;;;;;;;14.30;3.10;;;14.00;82.80;;;;;;5090695;28;20032;-76
2021/10/11 09:27:55;;;;;;;12.20;2.55;;;14.10;82.90;;;;;;5068317;28;20036;-76
2021/10/11 09:30:28;;;;;;;12.35;2.72;;;14.10;83.30;;;;;;5079668;28;20035;-74
2021/10/11 09:33:22;;;;;;;11.32;2.65;;;14.10;83.10;;;;;;5070986;28;20052;-74
2021/10/11 09:35:49;;;;;;;11.23;2.67;;;14.20;83.20;;;;;;5091611;28;20052;-75
2021/10/11 09:38:27;;;;;;;10.65;2.88;;;14.20;83.30;;;;;;5066557;28;20041;-76
2021/10/11 09:40:54;;;;;;;6.93;2.35;;;14.20;83.20;;;;;;5088447;28;20049;-74
2021/10/11 09:43:23;;;;;;;9.95;2.70;;;14.20;83.20;;;;;;5074360;28;20081;-73
2021/10/11 09:45:50;;;;;;;10.95;2.53;;;14.30;83.30;;;;;;5073715;28;20024;-75
2021/10/11 09:48:16;;;;;;;11.25;2.97;;;14.30;83.10;;;;;;5100230;28;20020;-76
2021/10/11 09:50:42;;;;;;;8.25;2.83;;;14.40;83.10;;;;;;5075882;28;20039;-76
2021/10/11 09:53:11;;;;;;;11.38;2.85;;;14.40;83.30;;;;;;5096537;28;20489;-76
2021/10/11 09:55:38;;;;;;;10.05;2.70;;;14.40;83.40;;;;;;5096449;28;20028;-76
2021/10/11 09:58:09;;;;;;;12.98;3.17;;;14.40;83.10;;;;;;5071617;28;20029;-76
2021/10/11 10:00:36;;;;;;;8.60;2.63;;;14.40;82.90;;;;;;5092022;28;20486;-76
2021/10/11 10:03:01;;;;;;;8.65;2.63;;;14.40;83.50;;;;;;5094643;28;20019;-76
2021/10/11 10:05:34;;;;;;;10.05;2.53;;;14.40;83.00;;;;;;5072156;28;20548;-76
2021/10/11 10:08:06;;;;;;;10.43;2.90;;;14.50;83.30;;;;;;5080957;28;20080;-76
2021/10/11 10:10:33;;;;;;;10.50;3.05;;;14.50;83.30;;;;;;5076888;28;20390;-76
2021/10/11 10:12:59;;;;;;;12.63;2.92;;;14.60;83.40;;;;;;5091376;28;20052;-73
2021/10/11 10:15:32;;;;;;;10.57;2.70;;;14.60;83.00;;;;;;5071355;28;20136;-73
2021/10/11 10:18:07;;;;;;;13.32;4.50;;;14.70;82.80;;;;;;5073718;28;20034;-76
2021/10/11 10:20:34;;;;;;;10.98;2.80;;;14.70;82.70;;;;;;5094917;28;20024;-76
2021/10/11 10:23:00;;;;;;;10.02;2.67;;;14.80;82.60;;;;;;5091486;28;20028;-76
2021/10/11 10:25:27;;;;;;;9.73;2.72;;;14.90;82.60;;;;;;5077552;28;20063;-74
2021/10/11 10:28:03;;;;;;;9.95;2.72;;;15.00;82.30;;;;;;5086452;28;20101;-74
2021/10/11 10:30:29;;;;;;;14.30;2.90;;;15.20;82.30;;;;;;5092005;28;20058;-74
2021/10/11 10:33:03;;;;;;;13.50;2.92;;;15.40;81.80;;;;;;5088568;28;20112;-74
2021/10/11 10:35:32;;;;;;;14.88;3.40;;;15.50;81.40;;;;;;5103954;28;20021;-74
2021/10/11 10:37:58;;;;;;;9.50;2.83;;;15.60;81.50;;;;;;5074166;28;20028;-74
2021/10/11 10:40:30;;;;;;;13.70;3.28;;;15.60;80.70;;;;;;5096716;28;20052;-74
2021/10/11 10:43:12;;;;;;;10.90;2.63;;;15.70;80.60;;;;;;5070713;28;20027;-74
2021/10/11 10:45:38;;;;;;;9.15;2.45;;;15.80;80.70;;;;;;5091158;28;20486;-76
2021/10/11 10:48:25;;;;;;;9.32;2.40;;;16.00;79.90;;;;;;5050997;28;20546;-74
2021/10/11 10:50:56;;;;;;;11.23;2.42;;;16.30;79.10;;;;;;5089680;28;20032;-74
2021/10/11 10:53:23;;;;;;;11.15;2.30;;;16.50;78.80;;;;;;5069053;28;20020;-76
2021/10/11 10:55:50;;;;;;;10.43;2.22;;;16.70;77.00;;;;;;5072683;28;20134;-76
2021/10/11 10:58:16;;;;;;;13.65;2.85;;;16.80;76.90;;;;;;5073593;28;20032;-76
2021/10/11 11:00:44;;;;;;;11.02;2.20;;;16.90;76.10;;;;;;5095865;28;20472;-74
2021/10/11 11:03:13;;;;;;;11.85;2.58;;;16.90;75.70;;;;;;5074945;28;20031;-74
2021/10/11 11:05:40;;;;;;;7.63;1.95;;;16.90;75.10;;;;;;5070484;28;20417;-74
2021/10/11 11:08:06;;;;;;;8.82;1.98;;;16.90;74.80;;;;;;5076151;28;20072;-76
2021/10/11 11:10:34;;;;;;;9.80;2.15;;;16.80;74.40;;;;;;5100475;28;20027;-74
2021/10/11 11:13:06;;;;;;;8.20;1.98;;;16.90;74.70;;;;;;5087065;28;20024;-76
2021/10/11 11:15:39;;;;;;;6.57;1.65;;;16.90;73.80;;;;;;5087351;28;20047;-74
2021/10/11 11:18:13;;;;;;;7.82;1.95;;;17.00;72.70;;;;;;5087063;28;20269;-74
2021/10/11 11:20:41;;;;;;;7.28;1.52;;;17.10;71.70;;;;;;5089493;28;20012;-76
2021/10/11 11:23:13;;;;;;;11.52;2.28;;;17.20;71.30;;;;;;5071203;28;20512;-76
2021/10/11 11:27:05;;;;;;;9.85;2.17;;;17.60;70.30;;;;;;5114646;27;20109;-75
2021/10/11 11:29:31;;;;;;;6.72;1.42;;;17.70;70.50;;;;;;5103656;28;20379;-73
2021/10/11 11:31:57;;;;;;;6.40;1.83;;;17.70;70.30;;;;;;5105852;28;20455;-72
2021/10/11 11:34:23;;;;;;;7.75;1.45;;;17.70;70.20;;;;;;5106039;28;20420;-72
2021/10/11 11:36:54;;;;;;;8.65;1.80;;;17.80;69.50;;;;;;5086073;28;20024;-72
2021/10/11 11:39:21;;;;;;;6.40;1.90;;;17.70;68.40;;;;;;5122036;27;20034;-74
2021/10/11 11:41:55;;;;;;;6.57;1.67;;;17.60;68.60;;;;;;5066295;28;20516;-75
2021/10/11 11:44:26;;;;;;;6.50;1.73;;;17.60;67.70;;;;;;5088796;28;20109;-74
2021/10/11 11:47:09;;;;;;;5.80;1.90;;;17.50;69.00;;;;;;5096017;28;20045;-75
2021/10/11 11:49:37;;;;;;;6.20;1.52;;;17.50;68.80;;;;;;5097715;28;20020;-74
2021/10/11 11:52:11;;;;;;;7.65;1.70;;;17.50;68.40;;;;;;5087432;28;20122;-75
2021/10/11 11:54:39;;;;;;;9.68;1.60;;;17.50;69.20;;;;;;5112833;27;20455;-72
2021/10/11 11:57:05;;;;;;;10.18;1.70;;;17.40;68.70;;;;;;5121796;27;20466;-72
2021/10/11 11:59:32;;;;;;;7.40;1.60;;;17.40;69.10;;;;;;5105308;28;20541;-72
2021/10/11 12:02:02;;;;;;;7.05;1.90;;;17.40;69.10;;;;;;5071101;28;20076;-75
2021/10/11 12:04:29;;;;;;;5.57;1.27;;;17.40;68.70;;;;;;5105602;28;20383;-75
2021/10/11 12:07:01;;;;;;;6.25;1.08;;;17.30;67.90;;;;;;5074533;28;20415;-72
2021/10/11 12:09:27;;;;;;;;;;;17.10;68.10;;;;;;5105651;28;20024;-72
2021/10/11 12:12:04;;;;;;;6.28;1.17;;;17.10;68.70;;;;;;5090341;28;20355;-74
2021/10/11 12:14:30;;;;;;;6.53;1.40;;;17.10;68.10;;;;;;5086793;28;20024;-75
2021/10/11 12:17:07;;;;;;;9.23;1.50;;;17.10;67.30;;;;;;5109312;28;20023;-72
2021/10/11 12:19:38;;;;;;;7.68;1.48;;;17.10;67.00;;;;;;5084596;28;20034;-72
2021/10/11 12:22:05;;;;;;;6.35;1.38;;;17.10;66.70;;;;;;5098015;28;20028;-75
2021/10/11 12:24:32;;;;;;;9.10;1.35;;;17.00;67.60;;;;;;5087115;28;20476;-72
2021/10/11 12:27:03;;;;;;;4.75;1.38;;;17.00;67.90;;;;;;5105396;28;20385;-72
2021/10/11 12:29:31;;;;;;;6.90;1.90;;;16.90;67.90;;;;;;5080498;28;20130;-72
2021/10/11 12:32:10;;;;;;;4.50;1.20;;;16.80;68.50;;;;;;5105223;28;20093;-72
2021/10/11 12:34:45;;;;;;;4.72;1.10;;;16.70;68.90;;;;;;5069484;28;20414;-72
2021/10/11 12:37:15;;;;;;;4.72;1.17;;;16.60;69.30;;;;;;5097222;28;20024;-72
2021/10/11 12:39:46;;;;;;;6.63;1.20;;;16.60;68.40;;;;;;5091431;28;20024;-72
2021/10/11 12:42:26;;;;;;;6.53;1.23;;;16.50;69.40;;;;;;5090909;28;20474;-72
2021/10/11 12:44:55;;;;;;;4.35;1.17;;;16.40;69.10;;;;;;5091536;28;20046;-72